Pagrindinis puslapis
METAR-TAF:

METAR-TAF

Oro uostai :

Sučava, Rumunija

platuma: 47-39N, ilguma: 026-15E, Aukštis: 351 m

Dabartinis oras

Ataskaita buvo paskelbta 29 minutes, ne 13:30 UTC
Vėjas 7 kt iš Pietvakarių
Temperatūra 9°C
Drėgmė 53%
Slėgis 1014 hPa
Matomumas 10 km arba daugiau
nėra debesų žemiau 1500 m ir nėra kamuolinių lietaus debesų

METAR: LRSV 151330Z 22007KT CAVOK 09/00 Q1014 R16/19//95

Laikas: 15:59 (13:59 UTC)

Prognozė

Ataskaita buvo paskelbta 2 valandos ir 59 minutes, ne 11:00 UTC
Prognozė galioja nuo 15 metu 12 UTC su 15 metu 21 UTC
Vėjas 10 kt iš Vakarų/Pietvakarių
Matomumas 10 km arba daugiau
nėra debesų žemiau 1500 m ir nėra kamuolinių lietaus debesų
Tapsmas
nuo 15 metu 13 UTC su 15 metu 15 UTC
Vėjas 4 kt nuo kintamojo kryptimis

TAF: LRSV 151100Z 1512/1521 24010KT CAVOK BECMG 1513/1515 VRB04KT

Orai ataskaitas ir orų prognozės (METAR, TAF).

turimą stotys yra geltonos ir raudonos taškus žemėlapyje.

Perkelti pele per norėdami pamatyti stoties vardą.

Tada spustelėkite, norėdami matyti oro stebėjimo ir prognozės.

Norėdami pakeisti žemėlapį: spustelėkite ant žalios mygtukų su juodo kryžiaus žemyn,; žalią mygtuką su brūkšneliu, jei norite nutolinti; arba žalių rodyklių gretimoms žemėlapius.


METAR-TAF: